sensor_id;sensor_type;location;lat;lon;timestamp;P1;durP1;ratioP1;P2;durP2;ratioP2
46701;SDS011;33449;50.712;7.124;2022-12-07T00:01:33;49.88;;;24.20;;
46701;SDS011;33449;50.712;7.124;2022-12-07T00:04:02;49.63;;;22.58;;
46701;SDS011;33449;50.712;7.124;2022-12-07T00:06:39;45.78;;;23.25;;
46701;SDS011;33449;50.712;7.124;2022-12-07T00:09:09;53.72;;;24.77;;
46701;SDS011;33449;50.712;7.124;2022-12-07T00:11:37;57.63;;;25.50;;
46701;SDS011;33449;50.712;7.124;2022-12-07T00:14:05;49.30;;;24.32;;
46701;SDS011;33449;50.712;7.124;2022-12-07T00:16:33;56.80;;;24.95;;
46701;SDS011;33449;50.712;7.124;2022-12-07T00:19:01;54.55;;;24.27;;
46701;SDS011;33449;50.712;7.124;2022-12-07T00:21:29;50.97;;;24.13;;
46701;SDS011;33449;50.712;7.124;2022-12-07T00:23:58;53.58;;;24.38;;
46701;SDS011;33449;50.712;7.124;2022-12-07T00:29:20;50.85;;;23.65;;
46701;SDS011;33449;50.712;7.124;2022-12-07T00:34:22;48.80;;;22.38;;
46701;SDS011;33449;50.712;7.124;2022-12-07T00:36:49;49.72;;;24.13;;
46701;SDS011;33449;50.712;7.124;2022-12-07T00:39:17;48.60;;;22.05;;
46701;SDS011;33449;50.712;7.124;2022-12-07T00:41:44;47.53;;;22.00;;
46701;SDS011;33449;50.712;7.124;2022-12-07T00:44:10;42.78;;;21.33;;
46701;SDS011;33449;50.712;7.124;2022-12-07T00:54:32;39.22;;;21.33;;
46701;SDS011;33449;50.712;7.124;2022-12-07T00:56:59;52.03;;;22.83;;
46701;SDS011;33449;50.712;7.124;2022-12-07T00:59:25;50.58;;;23.33;;
46701;SDS011;33449;50.712;7.124;2022-12-07T01:01:53;41.55;;;20.90;;
46701;SDS011;33449;50.712;7.124;2022-12-07T01:04:20;44.85;;;24.15;;
46701;SDS011;33449;50.712;7.124;2022-12-07T01:06:46;43.58;;;20.98;;
46701;SDS011;33449;50.712;7.124;2022-12-07T01:09:13;46.58;;;22.25;;
46701;SDS011;33449;50.712;7.124;2022-12-07T01:11:40;44.15;;;22.10;;
46701;SDS011;33449;50.712;7.124;2022-12-07T01:14:06;47.78;;;24.55;;
46701;SDS011;33449;50.712;7.124;2022-12-07T01:24:29;44.83;;;22.48;;
46701;SDS011;33449;50.712;7.124;2022-12-07T01:26:56;44.33;;;22.10;;
46701;SDS011;33449;50.712;7.124;2022-12-07T01:29:22;45.25;;;20.48;;
46701;SDS011;33449;50.712;7.124;2022-12-07T01:31:49;58.30;;;25.88;;
46701;SDS011;33449;50.712;7.124;2022-12-07T01:34:16;43.40;;;22.90;;
46701;SDS011;33449;50.712;7.124;2022-12-07T01:36:43;44.35;;;21.85;;
46701;SDS011;33449;50.712;7.124;2022-12-07T01:39:09;42.42;;;21.40;;
46701;SDS011;33449;50.712;7.124;2022-12-07T01:41:38;47.50;;;23.17;;
46701;SDS011;33449;50.712;7.124;2022-12-07T01:44:08;47.60;;;21.25;;
46701;SDS011;33449;50.712;7.124;2022-12-07T01:46:49;40.67;;;22.30;;
46701;SDS011;33449;50.712;7.124;2022-12-07T01:55:06;40.72;;;20.65;;
46701;SDS011;33449;50.712;7.124;2022-12-07T01:57:35;43.83;;;23.15;;
46701;SDS011;33449;50.712;7.124;2022-12-07T02:00:05;46.97;;;23.17;;
46701;SDS011;33449;50.712;7.124;2022-12-07T02:02:33;39.40;;;20.90;;
46701;SDS011;33449;50.712;7.124;2022-12-07T02:05:03;44.47;;;23.83;;
46701;SDS011;33449;50.712;7.124;2022-12-07T02:13:04;47.97;;;22.25;;
46701;SDS011;33449;50.712;7.124;2022-12-07T02:15:51;46.05;;;24.35;;
46701;SDS011;33449;50.712;7.124;2022-12-07T02:27:27;53.20;;;25.35;;
46701;SDS011;33449;50.712;7.124;2022-12-07T02:35:28;51.45;;;25.20;;
46701;SDS011;33449;50.712;7.124;2022-12-07T02:45:58;51.97;;;25.00;;
46701;SDS011;33449;50.712;7.124;2022-12-07T02:48:29;51.88;;;26.17;;
46701;SDS011;33449;50.712;7.124;2022-12-07T02:50:58;47.67;;;26.98;;
46701;SDS011;33449;50.712;7.124;2022-12-07T02:53:36;51.22;;;26.60;;
46701;SDS011;33449;50.712;7.124;2022-12-07T02:59:28;48.97;;;23.58;;
46701;SDS011;33449;50.712;7.124;2022-12-07T03:02:26;56.28;;;28.52;;
46701;SDS011;33449;50.712;7.124;2022-12-07T03:07:59;52.30;;;26.40;;
46701;SDS011;33449;50.712;7.124;2022-12-07T03:13:22;48.55;;;21.70;;
46701;SDS011;33449;50.712;7.124;2022-12-07T03:16:08;49.03;;;25.98;;
46701;SDS011;33449;50.712;7.124;2022-12-07T03:18:39;59.60;;;25.90;;
46701;SDS011;33449;50.712;7.124;2022-12-07T03:21:32;54.58;;;26.70;;
46701;SDS011;33449;50.712;7.124;2022-12-07T03:24:03;56.25;;;28.33;;
46701;SDS011;33449;50.712;7.124;2022-12-07T03:26:34;49.73;;;26.50;;
46701;SDS011;33449;50.712;7.124;2022-12-07T03:29:25;52.35;;;27.23;;
46701;SDS011;33449;50.712;7.124;2022-12-07T03:31:54;52.17;;;26.88;;
46701;SDS011;33449;50.712;7.124;2022-12-07T03:34:27;56.10;;;27.60;;
46701;SDS011;33449;50.712;7.124;2022-12-07T03:37:32;57.75;;;27.95;;
46701;SDS011;33449;50.712;7.124;2022-12-07T03:40:16;51.20;;;25.92;;
46701;SDS011;33449;50.712;7.124;2022-12-07T03:42:50;53.28;;;26.13;;
46701;SDS011;33449;50.712;7.124;2022-12-07T03:45:19;56.67;;;27.27;;
46701;SDS011;33449;50.712;7.124;2022-12-07T03:53:44;55.05;;;27.30;;
46701;SDS011;33449;50.712;7.124;2022-12-07T03:56:15;57.10;;;27.75;;
46701;SDS011;33449;50.712;7.124;2022-12-07T03:58:41;52.25;;;26.40;;
46701;SDS011;33449;50.712;7.124;2022-12-07T04:03:45;51.85;;;27.70;;
46701;SDS011;33449;50.712;7.124;2022-12-07T04:06:12;51.45;;;27.00;;
46701;SDS011;33449;50.712;7.124;2022-12-07T04:08:39;57.60;;;28.17;;
46701;SDS011;33449;50.712;7.124;2022-12-07T04:11:05;45.95;;;24.60;;
46701;SDS011;33449;50.712;7.124;2022-12-07T04:13:32;56.45;;;26.80;;
46701;SDS011;33449;50.712;7.124;2022-12-07T04:16:19;53.97;;;27.00;;
46701;SDS011;33449;50.712;7.124;2022-12-07T04:18:45;53.72;;;28.05;;
46701;SDS011;33449;50.712;7.124;2022-12-07T04:21:29;56.75;;;26.27;;
46701;SDS011;33449;50.712;7.124;2022-12-07T04:23:56;51.15;;;26.40;;
46701;SDS011;33449;50.712;7.124;2022-12-07T04:26:23;55.15;;;27.67;;
46701;SDS011;33449;50.712;7.124;2022-12-07T04:28:49;57.40;;;25.38;;
46701;SDS011;33449;50.712;7.124;2022-12-07T04:31:16;56.20;;;27.60;;
46701;SDS011;33449;50.712;7.124;2022-12-07T04:33:43;52.55;;;25.20;;
46701;SDS011;33449;50.712;7.124;2022-12-07T04:39:00;60.28;;;28.75;;
46701;SDS011;33449;50.712;7.124;2022-12-07T04:41:27;57.22;;;26.58;;
46701;SDS011;33449;50.712;7.124;2022-12-07T04:43:57;54.67;;;27.38;;
46701;SDS011;33449;50.712;7.124;2022-12-07T04:46:26;56.90;;;25.58;;
46701;SDS011;33449;50.712;7.124;2022-12-07T04:51:27;59.58;;;28.00;;
46701;SDS011;33449;50.712;7.124;2022-12-07T04:53:55;63.58;;;29.38;;
46701;SDS011;33449;50.712;7.124;2022-12-07T04:56:22;59.10;;;29.35;;
46701;SDS011;33449;50.712;7.124;2022-12-07T04:58:50;61.60;;;28.50;;
46701;SDS011;33449;50.712;7.124;2022-12-07T05:01:20;58.13;;;27.17;;
46701;SDS011;33449;50.712;7.124;2022-12-07T05:11:41;62.03;;;29.58;;
46701;SDS011;33449;50.712;7.124;2022-12-07T05:14:13;67.68;;;30.02;;
46701;SDS011;33449;50.712;7.124;2022-12-07T05:16:42;59.97;;;27.13;;
46701;SDS011;33449;50.712;7.124;2022-12-07T05:19:10;59.90;;;27.02;;
46701;SDS011;33449;50.712;7.124;2022-12-07T05:24:22;53.58;;;25.77;;
46701;SDS011;33449;50.712;7.124;2022-12-07T05:26:49;52.75;;;23.30;;
46701;SDS011;33449;50.712;7.124;2022-12-07T05:29:16;53.42;;;25.42;;
46701;SDS011;33449;50.712;7.124;2022-12-07T05:31:43;55.13;;;27.17;;
46701;SDS011;33449;50.712;7.124;2022-12-07T05:34:10;52.92;;;27.73;;
46701;SDS011;33449;50.712;7.124;2022-12-07T05:39:29;49.90;;;22.77;;
46701;SDS011;33449;50.712;7.124;2022-12-07T05:42:19;51.42;;;24.63;;
46701;SDS011;33449;50.712;7.124;2022-12-07T05:44:46;55.95;;;23.58;;
46701;SDS011;33449;50.712;7.124;2022-12-07T05:47:13;61.08;;;28.15;;
46701;SDS011;33449;50.712;7.124;2022-12-07T05:49:42;54.25;;;27.67;;
46701;SDS011;33449;50.712;7.124;2022-12-07T05:52:09;53.38;;;25.58;;
46701;SDS011;33449;50.712;7.124;2022-12-07T05:57:11;56.97;;;25.42;;
46701;SDS011;33449;50.712;7.124;2022-12-07T05:59:52;54.00;;;25.25;;
46701;SDS011;33449;50.712;7.124;2022-12-07T06:02:19;55.40;;;25.13;;
46701;SDS011;33449;50.712;7.124;2022-12-07T06:04:46;56.58;;;25.95;;
46701;SDS011;33449;50.712;7.124;2022-12-07T06:07:14;52.70;;;24.38;;
46701;SDS011;33449;50.712;7.124;2022-12-07T06:12:15;55.47;;;24.88;;
46701;SDS011;33449;50.712;7.124;2022-12-07T06:15:12;59.63;;;24.27;;
46701;SDS011;33449;50.712;7.124;2022-12-07T06:17:40;54.10;;;24.92;;
46701;SDS011;33449;50.712;7.124;2022-12-07T06:20:06;53.10;;;24.63;;
46701;SDS011;33449;50.712;7.124;2022-12-07T06:22:33;52.55;;;24.65;;
46701;SDS011;33449;50.712;7.124;2022-12-07T06:25:00;52.83;;;25.00;;
46701;SDS011;33449;50.712;7.124;2022-12-07T06:30:04;51.03;;;24.73;;
46701;SDS011;33449;50.712;7.124;2022-12-07T06:32:33;51.50;;;23.70;;
46701;SDS011;33449;50.712;7.124;2022-12-07T06:34:59;48.05;;;21.58;;
46701;SDS011;33449;50.712;7.124;2022-12-07T06:37:28;52.75;;;21.85;;
46701;SDS011;33449;50.712;7.124;2022-12-07T06:39:54;55.22;;;23.15;;
46701;SDS011;33449;50.712;7.124;2022-12-07T06:45:08;47.90;;;19.88;;
46701;SDS011;33449;50.712;7.124;2022-12-07T06:47:34;48.80;;;23.77;;
46701;SDS011;33449;50.712;7.124;2022-12-07T06:50:11;51.25;;;23.25;;
46701;SDS011;33449;50.712;7.124;2022-12-07T06:52:38;64.00;;;23.48;;
46701;SDS011;33449;50.712;7.124;2022-12-07T06:55:04;56.88;;;25.13;;
46701;SDS011;33449;50.712;7.124;2022-12-07T07:00:02;58.17;;;25.20;;
46701;SDS011;33449;50.712;7.124;2022-12-07T07:02:31;52.28;;;23.95;;
46701;SDS011;33449;50.712;7.124;2022-12-07T07:04:57;57.88;;;23.58;;
46701;SDS011;33449;50.712;7.124;2022-12-07T07:07:24;52.92;;;25.08;;
46701;SDS011;33449;50.712;7.124;2022-12-07T07:09:51;53.70;;;24.38;;
46701;SDS011;33449;50.712;7.124;2022-12-07T07:15:04;47.45;;;20.38;;
46701;SDS011;33449;50.712;7.124;2022-12-07T07:17:31;48.15;;;21.73;;
46701;SDS011;33449;50.712;7.124;2022-12-07T07:19:58;43.15;;;20.60;;
46701;SDS011;33449;50.712;7.124;2022-12-07T07:22:26;52.47;;;21.52;;
46701;SDS011;33449;50.712;7.124;2022-12-07T07:24:52;49.28;;;22.00;;
46701;SDS011;33449;50.712;7.124;2022-12-07T07:29:53;44.80;;;21.55;;
46701;SDS011;33449;50.712;7.124;2022-12-07T07:32:19;45.30;;;20.92;;
46701;SDS011;33449;50.712;7.124;2022-12-07T07:34:48;36.67;;;18.15;;
46701;SDS011;33449;50.712;7.124;2022-12-07T07:37:15;43.33;;;20.08;;
46701;SDS011;33449;50.712;7.124;2022-12-07T07:39:48;47.15;;;19.60;;
46701;SDS011;33449;50.712;7.124;2022-12-07T07:42:15;43.13;;;19.70;;
46701;SDS011;33449;50.712;7.124;2022-12-07T07:44:41;41.75;;;20.70;;
46701;SDS011;33449;50.712;7.124;2022-12-07T07:47:08;39.25;;;18.83;;
46701;SDS011;33449;50.712;7.124;2022-12-07T07:49:35;41.85;;;19.80;;
46701;SDS011;33449;50.712;7.124;2022-12-07T07:52:02;40.70;;;19.60;;
46701;SDS011;33449;50.712;7.124;2022-12-07T07:54:29;46.20;;;20.13;;
46701;SDS011;33449;50.712;7.124;2022-12-07T07:56:56;38.72;;;19.48;;
46701;SDS011;33449;50.712;7.124;2022-12-07T07:59:23;41.58;;;20.98;;
46701;SDS011;33449;50.712;7.124;2022-12-07T08:01:51;42.15;;;21.52;;
46701;SDS011;33449;50.712;7.124;2022-12-07T08:04:18;44.17;;;20.70;;
46701;SDS011;33449;50.712;7.124;2022-12-07T08:06:45;49.55;;;21.85;;
46701;SDS011;33449;50.712;7.124;2022-12-07T08:09:12;41.88;;;19.00;;
46701;SDS011;33449;50.712;7.124;2022-12-07T08:11:38;41.22;;;18.42;;
46701;SDS011;33449;50.712;7.124;2022-12-07T08:14:05;55.88;;;21.98;;
46701;SDS011;33449;50.712;7.124;2022-12-07T08:16:32;44.80;;;20.95;;
46701;SDS011;33449;50.712;7.124;2022-12-07T08:18:59;45.08;;;23.13;;
46701;SDS011;33449;50.712;7.124;2022-12-07T08:21:27;43.25;;;21.60;;
46701;SDS011;33449;50.712;7.124;2022-12-07T08:24:04;45.38;;;21.65;;
46701;SDS011;33449;50.712;7.124;2022-12-07T08:26:31;41.50;;;19.83;;
46701;SDS011;33449;50.712;7.124;2022-12-07T08:28:58;43.97;;;20.15;;
46701;SDS011;33449;50.712;7.124;2022-12-07T08:31:25;41.72;;;19.50;;
46701;SDS011;33449;50.712;7.124;2022-12-07T08:33:55;50.55;;;23.77;;
46701;SDS011;33449;50.712;7.124;2022-12-07T08:36:22;51.35;;;23.98;;
46701;SDS011;33449;50.712;7.124;2022-12-07T08:38:49;52.85;;;24.02;;
46701;SDS011;33449;50.712;7.124;2022-12-07T08:41:34;49.33;;;20.38;;
46701;SDS011;33449;50.712;7.124;2022-12-07T08:44:01;45.08;;;23.50;;
46701;SDS011;33449;50.712;7.124;2022-12-07T08:46:35;46.65;;;22.23;;
46701;SDS011;33449;50.712;7.124;2022-12-07T08:49:09;52.53;;;23.40;;
46701;SDS011;33449;50.712;7.124;2022-12-07T08:51:39;41.88;;;20.75;;
46701;SDS011;33449;50.712;7.124;2022-12-07T08:56:40;44.33;;;20.05;;
46701;SDS011;33449;50.712;7.124;2022-12-07T08:59:08;35.83;;;19.80;;
46701;SDS011;33449;50.712;7.124;2022-12-07T09:01:41;39.03;;;19.48;;
46701;SDS011;33449;50.712;7.124;2022-12-07T09:04:10;46.50;;;16.65;;
46701;SDS011;33449;50.712;7.124;2022-12-07T09:06:37;43.38;;;17.27;;
46701;SDS011;33449;50.712;7.124;2022-12-07T09:22:57;33.28;;;14.20;;
46701;SDS011;33449;50.712;7.124;2022-12-07T09:25:24;38.45;;;16.80;;
46701;SDS011;33449;50.712;7.124;2022-12-07T09:30:21;29.90;;;15.90;;
46701;SDS011;33449;50.712;7.124;2022-12-07T09:35:25;28.50;;;12.95;;
46701;SDS011;33449;50.712;7.124;2022-12-07T09:37:52;25.77;;;12.90;;
46701;SDS011;33449;50.712;7.124;2022-12-07T09:40:19;30.23;;;12.60;;
46701;SDS011;33449;50.712;7.124;2022-12-07T09:42:48;31.90;;;13.80;;
46701;SDS011;33449;50.712;7.124;2022-12-07T09:45:26;27.80;;;13.50;;
46701;SDS011;33449;50.712;7.124;2022-12-07T09:53:33;33.42;;;13.60;;
46701;SDS011;33449;50.712;7.124;2022-12-07T09:56:19;27.85;;;11.10;;
46701;SDS011;33449;50.712;7.124;2022-12-07T09:58:47;28.17;;;11.98;;
46701;SDS011;33449;50.712;7.124;2022-12-07T10:01:18;29.63;;;11.95;;
46701;SDS011;33449;50.712;7.124;2022-12-07T10:03:50;27.73;;;12.48;;
46701;SDS011;33449;50.712;7.124;2022-12-07T10:06:26;23.23;;;10.20;;
46701;SDS011;33449;50.712;7.124;2022-12-07T10:11:26;20.65;;;10.23;;
46701;SDS011;33449;50.712;7.124;2022-12-07T10:13:53;25.38;;;12.02;;
46701;SDS011;33449;50.712;7.124;2022-12-07T10:18:50;21.27;;;8.48;;
46701;SDS011;33449;50.712;7.124;2022-12-07T10:21:18;20.45;;;9.20;;
46701;SDS011;33449;50.712;7.124;2022-12-07T10:24:05;23.30;;;10.25;;
46701;SDS011;33449;50.712;7.124;2022-12-07T10:29:17;17.67;;;7.95;;
46701;SDS011;33449;50.712;7.124;2022-12-07T10:48:47;18.65;;;9.38;;
46701;SDS011;33449;50.712;7.124;2022-12-07T10:53:59;14.85;;;8.55;;
46701;SDS011;33449;50.712;7.124;2022-12-07T11:07:36;17.70;;;7.65;;
46701;SDS011;33449;50.712;7.124;2022-12-07T11:18:48;20.02;;;9.02;;
46701;SDS011;33449;50.712;7.124;2022-12-07T11:21:43;14.60;;;6.78;;
46701;SDS011;33449;50.712;7.124;2022-12-07T11:24:18;16.80;;;6.90;;
46701;SDS011;33449;50.712;7.124;2022-12-07T11:40:34;13.63;;;5.55;;
46701;SDS011;33449;50.712;7.124;2022-12-07T11:45:30;16.40;;;4.68;;
46701;SDS011;33449;50.712;7.124;2022-12-07T11:50:46;15.73;;;4.43;;
46701;SDS011;33449;50.712;7.124;2022-12-07T11:58:57;11.48;;;5.05;;
46701;SDS011;33449;50.712;7.124;2022-12-07T12:07:10;9.65;;;4.20;;
46701;SDS011;33449;50.712;7.124;2022-12-07T12:10:04;10.95;;;5.07;;
46701;SDS011;33449;50.712;7.124;2022-12-07T12:15:47;12.18;;;4.35;;
46701;SDS011;33449;50.712;7.124;2022-12-07T12:18:36;12.45;;;5.38;;
46701;SDS011;33449;50.712;7.124;2022-12-07T12:21:20;10.88;;;4.35;;
46701;SDS011;33449;50.712;7.124;2022-12-07T12:24:00;9.57;;;4.22;;
46701;SDS011;33449;50.712;7.124;2022-12-07T12:26:31;11.48;;;4.43;;
46701;SDS011;33449;50.712;7.124;2022-12-07T12:29:00;14.82;;;4.88;;
46701;SDS011;33449;50.712;7.124;2022-12-07T12:37:48;13.25;;;5.75;;
46701;SDS011;33449;50.712;7.124;2022-12-07T12:45:32;14.70;;;5.22;;
46701;SDS011;33449;50.712;7.124;2022-12-07T12:54:04;14.38;;;6.28;;
46701;SDS011;33449;50.712;7.124;2022-12-07T12:56:41;13.88;;;6.45;;
46701;SDS011;33449;50.712;7.124;2022-12-07T13:10:38;13.43;;;6.78;;
46701;SDS011;33449;50.712;7.124;2022-12-07T13:15:41;18.65;;;7.05;;
46701;SDS011;33449;50.712;7.124;2022-12-07T13:18:24;12.82;;;6.18;;
46701;SDS011;33449;50.712;7.124;2022-12-07T13:28:47;13.70;;;6.97;;
46701;SDS011;33449;50.712;7.124;2022-12-07T13:31:36;19.90;;;6.78;;
46701;SDS011;33449;50.712;7.124;2022-12-07T13:34:04;15.93;;;7.15;;
46701;SDS011;33449;50.712;7.124;2022-12-07T13:36:51;17.10;;;6.85;;
46701;SDS011;33449;50.712;7.124;2022-12-07T13:39:19;22.13;;;8.38;;
46701;SDS011;33449;50.712;7.124;2022-12-07T13:41:49;18.45;;;8.00;;
46701;SDS011;33449;50.712;7.124;2022-12-07T13:44:33;16.38;;;7.38;;
46701;SDS011;33449;50.712;7.124;2022-12-07T13:52:35;16.58;;;6.97;;
46701;SDS011;33449;50.712;7.124;2022-12-07T13:55:31;15.63;;;7.68;;
46701;SDS011;33449;50.712;7.124;2022-12-07T13:57:59;17.42;;;7.28;;
46701;SDS011;33449;50.712;7.124;2022-12-07T14:00:26;16.98;;;7.55;;
46701;SDS011;33449;50.712;7.124;2022-12-07T14:02:56;18.55;;;7.38;;
46701;SDS011;33449;50.712;7.124;2022-12-07T14:05:28;17.80;;;6.72;;
46701;SDS011;33449;50.712;7.124;2022-12-07T14:08:04;19.15;;;8.25;;
46701;SDS011;33449;50.712;7.124;2022-12-07T14:13:33;10.98;;;4.82;;
46701;SDS011;33449;50.712;7.124;2022-12-07T14:16:03;13.80;;;3.95;;
46701;SDS011;33449;50.712;7.124;2022-12-07T14:18:54;13.93;;;4.50;;
46701;SDS011;33449;50.712;7.124;2022-12-07T14:21:26;16.98;;;4.95;;
46701;SDS011;33449;50.712;7.124;2022-12-07T14:24:11;14.95;;;4.57;;
46701;SDS011;33449;50.712;7.124;2022-12-07T14:26:47;10.38;;;4.40;;
46701;SDS011;33449;50.712;7.124;2022-12-07T14:32:10;4.25;;;2.55;;
46701;SDS011;33449;50.712;7.124;2022-12-07T14:37:19;8.05;;;2.85;;
46701;SDS011;33449;50.712;7.124;2022-12-07T14:39:46;9.00;;;2.67;;
46701;SDS011;33449;50.712;7.124;2022-12-07T14:42:13;7.68;;;3.10;;
46701;SDS011;33449;50.712;7.124;2022-12-07T14:44:39;11.13;;;5.38;;
46701;SDS011;33449;50.712;7.124;2022-12-07T14:47:09;15.38;;;4.50;;
46701;SDS011;33449;50.712;7.124;2022-12-07T14:49:57;7.63;;;3.75;;
46701;SDS011;33449;50.712;7.124;2022-12-07T14:55:28;9.32;;;4.97;;
46701;SDS011;33449;50.712;7.124;2022-12-07T15:00:46;11.55;;;4.88;;
46701;SDS011;33449;50.712;7.124;2022-12-07T15:03:13;18.98;;;6.43;;
46701;SDS011;33449;50.712;7.124;2022-12-07T15:05:40;10.32;;;5.55;;
46701;SDS011;33449;50.712;7.124;2022-12-07T15:08:11;15.63;;;6.03;;
46701;SDS011;33449;50.712;7.124;2022-12-07T15:13:11;16.02;;;5.55;;
46701;SDS011;33449;50.712;7.124;2022-12-07T15:16:13;22.08;;;5.95;;
46701;SDS011;33449;50.712;7.124;2022-12-07T15:18:43;14.98;;;5.63;;
46701;SDS011;33449;50.712;7.124;2022-12-07T15:21:30;14.10;;;5.85;;
46701;SDS011;33449;50.712;7.124;2022-12-07T15:23:57;19.15;;;6.85;;
46701;SDS011;33449;50.712;7.124;2022-12-07T15:26:23;16.50;;;6.60;;
46701;SDS011;33449;50.712;7.124;2022-12-07T15:28:52;17.75;;;6.95;;
46701;SDS011;33449;50.712;7.124;2022-12-07T15:31:20;14.32;;;6.30;;
46701;SDS011;33449;50.712;7.124;2022-12-07T15:34:04;13.38;;;6.22;;
46701;SDS011;33449;50.712;7.124;2022-12-07T15:36:33;16.60;;;7.38;;
46701;SDS011;33449;50.712;7.124;2022-12-07T15:39:01;13.98;;;6.85;;
46701;SDS011;33449;50.712;7.124;2022-12-07T15:41:39;16.52;;;7.43;;
46701;SDS011;33449;50.712;7.124;2022-12-07T15:55:10;14.98;;;7.28;;
46701;SDS011;33449;50.712;7.124;2022-12-07T15:57:37;16.90;;;6.95;;
46701;SDS011;33449;50.712;7.124;2022-12-07T16:00:07;15.43;;;7.03;;
46701;SDS011;33449;50.712;7.124;2022-12-07T16:07:51;15.68;;;7.57;;
46701;SDS011;33449;50.712;7.124;2022-12-07T16:18:22;15.25;;;7.85;;
46701;SDS011;33449;50.712;7.124;2022-12-07T16:20:49;15.07;;;8.00;;
46701;SDS011;33449;50.712;7.124;2022-12-07T16:23:16;12.35;;;6.50;;
46701;SDS011;33449;50.712;7.124;2022-12-07T16:25:42;17.10;;;7.95;;
46701;SDS011;33449;50.712;7.124;2022-12-07T16:28:09;13.00;;;7.38;;
46701;SDS011;33449;50.712;7.124;2022-12-07T16:31:01;18.58;;;7.90;;
46701;SDS011;33449;50.712;7.124;2022-12-07T16:33:29;22.75;;;8.00;;
46701;SDS011;33449;50.712;7.124;2022-12-07T16:35:56;16.17;;;8.10;;
46701;SDS011;33449;50.712;7.124;2022-12-07T16:38:24;11.38;;;7.40;;
46701;SDS011;33449;50.712;7.124;2022-12-07T16:40:51;18.58;;;8.00;;
46701;SDS011;33449;50.712;7.124;2022-12-07T16:45:54;17.85;;;7.47;;
46701;SDS011;33449;50.712;7.124;2022-12-07T16:48:21;13.10;;;7.43;;
46701;SDS011;33449;50.712;7.124;2022-12-07T16:50:47;18.65;;;8.68;;
46701;SDS011;33449;50.712;7.124;2022-12-07T16:53:16;19.80;;;8.05;;
46701;SDS011;33449;50.712;7.124;2022-12-07T16:55:45;13.65;;;7.60;;
46701;SDS011;33449;50.712;7.124;2022-12-07T16:58:13;21.58;;;8.40;;
46701;SDS011;33449;50.712;7.124;2022-12-07T17:03:07;21.17;;;11.15;;
46701;SDS011;33449;50.712;7.124;2022-12-07T17:05:38;20.77;;;9.40;;
46701;SDS011;33449;50.712;7.124;2022-12-07T17:08:06;28.02;;;11.10;;
46701;SDS011;33449;50.712;7.124;2022-12-07T17:10:35;20.58;;;10.75;;
46701;SDS011;33449;50.712;7.124;2022-12-07T17:13:05;31.67;;;11.10;;
46701;SDS011;33449;50.712;7.124;2022-12-07T17:16:10;19.55;;;10.85;;
46701;SDS011;33449;50.712;7.124;2022-12-07T17:18:37;29.23;;;12.85;;
46701;SDS011;33449;50.712;7.124;2022-12-07T17:21:05;21.60;;;11.82;;
46701;SDS011;33449;50.712;7.124;2022-12-07T17:23:33;21.67;;;10.02;;
46701;SDS011;33449;50.712;7.124;2022-12-07T17:26:04;22.23;;;11.48;;
46701;SDS011;33449;50.712;7.124;2022-12-07T17:28:32;22.55;;;11.10;;
46701;SDS011;33449;50.712;7.124;2022-12-07T17:31:06;18.83;;;10.80;;
46701;SDS011;33449;50.712;7.124;2022-12-07T17:33:34;20.42;;;11.15;;
46701;SDS011;33449;50.712;7.124;2022-12-07T17:38:36;19.83;;;10.30;;
46701;SDS011;33449;50.712;7.124;2022-12-07T17:41:10;24.48;;;10.65;;
46701;SDS011;33449;50.712;7.124;2022-12-07T17:44:05;27.80;;;11.45;;
46701;SDS011;33449;50.712;7.124;2022-12-07T17:46:33;19.98;;;12.10;;
46701;SDS011;33449;50.712;7.124;2022-12-07T17:51:35;27.15;;;13.75;;
46701;SDS011;33449;50.712;7.124;2022-12-07T17:54:38;26.05;;;11.93;;
46701;SDS011;33449;50.712;7.124;2022-12-07T17:57:05;26.95;;;12.30;;
46701;SDS011;33449;50.712;7.124;2022-12-07T17:59:31;19.77;;;11.70;;
46701;SDS011;33449;50.712;7.124;2022-12-07T18:02:01;24.88;;;13.90;;
46701;SDS011;33449;50.712;7.124;2022-12-07T18:04:28;27.35;;;13.38;;
46701;SDS011;33449;50.712;7.124;2022-12-07T18:09:32;23.10;;;11.57;;
46701;SDS011;33449;50.712;7.124;2022-12-07T18:11:59;23.77;;;12.85;;
46701;SDS011;33449;50.712;7.124;2022-12-07T18:14:25;20.77;;;12.68;;
46701;SDS011;33449;50.712;7.124;2022-12-07T18:16:52;19.42;;;11.82;;
46701;SDS011;33449;50.712;7.124;2022-12-07T18:19:19;26.83;;;12.05;;
46701;SDS011;33449;50.712;7.124;2022-12-07T18:24:44;25.10;;;11.88;;
46701;SDS011;33449;50.712;7.124;2022-12-07T18:27:36;26.05;;;11.52;;
46701;SDS011;33449;50.712;7.124;2022-12-07T18:30:03;21.42;;;11.60;;
46701;SDS011;33449;50.712;7.124;2022-12-07T18:32:31;24.40;;;11.60;;
46701;SDS011;33449;50.712;7.124;2022-12-07T18:34:58;19.98;;;10.52;;
46701;SDS011;33449;50.712;7.124;2022-12-07T18:37:25;18.63;;;9.55;;
46701;SDS011;33449;50.712;7.124;2022-12-07T18:42:27;20.52;;;9.57;;
46701;SDS011;33449;50.712;7.124;2022-12-07T18:44:53;20.45;;;9.88;;
46701;SDS011;33449;50.712;7.124;2022-12-07T18:47:20;19.63;;;9.98;;
46701;SDS011;33449;50.712;7.124;2022-12-07T18:49:47;15.23;;;9.25;;
46701;SDS011;33449;50.712;7.124;2022-12-07T18:52:15;20.98;;;9.63;;
46701;SDS011;33449;50.712;7.124;2022-12-07T19:02:35;16.88;;;9.55;;
46701;SDS011;33449;50.712;7.124;2022-12-07T19:05:02;16.65;;;10.07;;
46701;SDS011;33449;50.712;7.124;2022-12-07T19:07:29;20.83;;;9.32;;
46701;SDS011;33449;50.712;7.124;2022-12-07T19:09:56;18.52;;;9.85;;
46701;SDS011;33449;50.712;7.124;2022-12-07T19:12:22;20.60;;;10.15;;
46701;SDS011;33449;50.712;7.124;2022-12-07T19:14:49;20.10;;;11.20;;
46701;SDS011;33449;50.712;7.124;2022-12-07T19:17:16;23.52;;;10.68;;
46701;SDS011;33449;50.712;7.124;2022-12-07T19:19:44;18.80;;;9.25;;
46701;SDS011;33449;50.712;7.124;2022-12-07T19:22:13;20.70;;;10.27;;
46701;SDS011;33449;50.712;7.124;2022-12-07T19:27:18;21.85;;;10.30;;
46701;SDS011;33449;50.712;7.124;2022-12-07T19:29:46;15.35;;;10.00;;
46701;SDS011;33449;50.712;7.124;2022-12-07T19:32:14;17.35;;;8.75;;
46701;SDS011;33449;50.712;7.124;2022-12-07T19:34:42;18.50;;;9.25;;
46701;SDS011;33449;50.712;7.124;2022-12-07T19:37:10;16.95;;;8.75;;
46701;SDS011;33449;50.712;7.124;2022-12-07T19:42:13;15.80;;;8.18;;
46701;SDS011;33449;50.712;7.124;2022-12-07T19:44:40;18.65;;;9.10;;
46701;SDS011;33449;50.712;7.124;2022-12-07T19:47:07;18.25;;;8.55;;
46701;SDS011;33449;50.712;7.124;2022-12-07T19:49:34;19.60;;;10.68;;
46701;SDS011;33449;50.712;7.124;2022-12-07T19:52:04;14.23;;;9.25;;
46701;SDS011;33449;50.712;7.124;2022-12-07T19:57:49;20.50;;;10.15;;
46701;SDS011;33449;50.712;7.124;2022-12-07T20:00:16;16.33;;;9.57;;
46701;SDS011;33449;50.712;7.124;2022-12-07T20:02:43;16.73;;;9.15;;
46701;SDS011;33449;50.712;7.124;2022-12-07T20:05:10;18.27;;;10.38;;
46701;SDS011;33449;50.712;7.124;2022-12-07T20:07:45;22.65;;;11.57;;
46701;SDS011;33449;50.712;7.124;2022-12-07T20:10:12;17.42;;;10.23;;
46701;SDS011;33449;50.712;7.124;2022-12-07T20:12:39;21.70;;;11.35;;
46701;SDS011;33449;50.712;7.124;2022-12-07T20:18:09;28.60;;;11.00;;
46701;SDS011;33449;50.712;7.124;2022-12-07T20:20:35;25.38;;;11.35;;
46701;SDS011;33449;50.712;7.124;2022-12-07T20:23:02;18.63;;;10.93;;
46701;SDS011;33449;50.712;7.124;2022-12-07T20:25:29;21.75;;;10.90;;
46701;SDS011;33449;50.712;7.124;2022-12-07T20:27:55;22.67;;;11.93;;